Fertile, Minnesota
Current Conditions -  °F | °C
As of 11:55 PM on Sunday 28 Dec 2014 (Local Time) from KFSE Reporting Station
Clear Clear  
Wind Chill: -23°   Ceiling: Unl
Heat Index: -11°   Visibility: 10mi
Dew Point: -17°   Wind: 5mph
Humidity: 77%   Direction: 340°NNW
Pressure: 30.45"   Gusts: NA
Location:  47.54°N, 96.28°W
Report Text: KFSE 290555Z AUTO 34004KT 10SM CLR M24/M27 A3045 RMK AO2
Loading
Personal Weather Stations






























Interactive Weather Map New forecast layout! Learn more

10-Day Weather Forecast

Advertisements
Track Severe Weather on mobile